Wingene, Belgium
Current Conditions -  °F | °C
As of 1:50 PM on Friday 24 Oct 2014 (Local Time) from EBOS Reporting Station
Broken Clouds Broken Clouds  
Wind Chill: 54°   Ceiling: 500
Heat Index: 54°   Visibility: 4mi
Dew Point: 50°   Wind: 10mph
Humidity: 88%   Direction: 190°S
Pressure: 30.03"   Gusts: NA
Location:  51.06°N, 3.27°E
Report Text: EBOS 241150Z 19009KT 6000 FEW004 BKN005 BKN010 12/10 Q1017 TEMPO 4000 -RADZ
Loading
Personal Weather Stations






























Interactive Weather Map
Tropical Storm Tracking
New forecast layout! Learn more

10-Day Weather Forecast

Advertisements
Track Severe Weather on mobile